sensor_id;sensor_type;location;lat;lon;timestamp;temperature;humidity
2873;DHT22;1444;49.166;7.312;2023-07-29T00:01:10;21.10;99.90
2873;DHT22;1444;49.166;7.312;2023-07-29T00:03:37;20.60;99.90
2873;DHT22;1444;49.166;7.312;2023-07-29T00:06:04;20.60;99.90
2873;DHT22;1444;49.166;7.312;2023-07-29T00:08:32;20.60;99.90
2873;DHT22;1444;49.166;7.312;2023-07-29T00:10:59;20.70;99.90
2873;DHT22;1444;49.166;7.312;2023-07-29T00:13:26;20.70;99.90
2873;DHT22;1444;49.166;7.312;2023-07-29T00:15:54;20.80;99.90
2873;DHT22;1444;49.166;7.312;2023-07-29T00:18:21;20.80;99.90
2873;DHT22;1444;49.166;7.312;2023-07-29T00:20:49;20.80;99.90
2873;DHT22;1444;49.166;7.312;2023-07-29T00:23:17;20.90;99.90
2873;DHT22;1444;49.166;7.312;2023-07-29T00:25:45;20.90;99.90
2873;DHT22;1444;49.166;7.312;2023-07-29T00:28:12;20.90;99.90
2873;DHT22;1444;49.166;7.312;2023-07-29T00:30:39;20.90;99.90
2873;DHT22;1444;49.166;7.312;2023-07-29T00:33:06;20.90;99.90
2873;DHT22;1444;49.166;7.312;2023-07-29T00:35:33;21.00;99.90
2873;DHT22;1444;49.166;7.312;2023-07-29T00:38:01;21.00;99.90
2873;DHT22;1444;49.166;7.312;2023-07-29T00:40:28;21.00;99.90
2873;DHT22;1444;49.166;7.312;2023-07-29T00:42:57;21.00;99.90
2873;DHT22;1444;49.166;7.312;2023-07-29T00:45:25;21.00;99.90
2873;DHT22;1444;49.166;7.312;2023-07-29T00:47:52;21.00;99.90
2873;DHT22;1444;49.166;7.312;2023-07-29T00:50:20;21.10;99.90
2873;DHT22;1444;49.166;7.312;2023-07-29T00:52:48;21.00;99.90
2873;DHT22;1444;49.166;7.312;2023-07-29T00:55:16;21.00;99.90
2873;DHT22;1444;49.166;7.312;2023-07-29T00:57:43;20.90;99.90
2873;DHT22;1444;49.166;7.312;2023-07-29T01:00:15;20.90;99.90
2873;DHT22;1444;49.166;7.312;2023-07-29T01:02:42;20.80;99.90
2873;DHT22;1444;49.166;7.312;2023-07-29T01:05:12;20.80;99.90
2873;DHT22;1444;49.166;7.312;2023-07-29T01:07:45;20.80;99.90
2873;DHT22;1444;49.166;7.312;2023-07-29T01:10:24;20.80;99.90
2873;DHT22;1444;49.166;7.312;2023-07-29T01:12:56;20.80;99.90
2873;DHT22;1444;49.166;7.312;2023-07-29T01:15:30;20.90;99.90
2873;DHT22;1444;49.166;7.312;2023-07-29T01:18:04;20.90;99.90
2873;DHT22;1444;49.166;7.312;2023-07-29T01:20:33;20.80;99.90
2873;DHT22;1444;49.166;7.312;2023-07-29T01:23:01;20.70;99.90
2873;DHT22;1444;49.166;7.312;2023-07-29T01:25:29;20.60;99.90
2873;DHT22;1444;49.166;7.312;2023-07-29T01:27:56;20.60;99.90
2873;DHT22;1444;49.166;7.312;2023-07-29T01:30:29;20.50;99.90
2873;DHT22;1444;49.166;7.312;2023-07-29T01:33:02;20.60;99.90
2873;DHT22;1444;49.166;7.312;2023-07-29T01:35:33;20.60;99.90
2873;DHT22;1444;49.166;7.312;2023-07-29T01:38:05;20.60;99.90
2873;DHT22;1444;49.166;7.312;2023-07-29T01:40:35;20.70;99.90
2873;DHT22;1444;49.166;7.312;2023-07-29T01:43:02;20.50;99.90
2873;DHT22;1444;49.166;7.312;2023-07-29T01:45:29;20.60;99.90
2873;DHT22;1444;49.166;7.312;2023-07-29T01:48:01;20.60;99.90
2873;DHT22;1444;49.166;7.312;2023-07-29T01:50:27;20.60;99.90
2873;DHT22;1444;49.166;7.312;2023-07-29T01:52:54;20.70;99.90
2873;DHT22;1444;49.166;7.312;2023-07-29T01:55:21;20.70;99.90
2873;DHT22;1444;49.166;7.312;2023-07-29T01:57:49;20.80;99.90
2873;DHT22;1444;49.166;7.312;2023-07-29T02:00:17;20.80;99.90
2873;DHT22;1444;49.166;7.312;2023-07-29T02:02:44;20.90;99.90
2873;DHT22;1444;49.166;7.312;2023-07-29T02:05:11;21.00;99.90
2873;DHT22;1444;49.166;7.312;2023-07-29T02:07:38;21.00;99.90
2873;DHT22;1444;49.166;7.312;2023-07-29T02:10:06;21.10;99.90
2873;DHT22;1444;49.166;7.312;2023-07-29T02:12:33;21.00;99.90
2873;DHT22;1444;49.166;7.312;2023-07-29T02:15:01;21.10;99.90
2873;DHT22;1444;49.166;7.312;2023-07-29T02:17:28;21.10;99.90
2873;DHT22;1444;49.166;7.312;2023-07-29T02:19:55;21.10;99.90
2873;DHT22;1444;49.166;7.312;2023-07-29T02:22:23;21.10;99.90
2873;DHT22;1444;49.166;7.312;2023-07-29T02:24:50;21.00;99.90
2873;DHT22;1444;49.166;7.312;2023-07-29T02:27:16;21.00;99.90
2873;DHT22;1444;49.166;7.312;2023-07-29T02:29:43;21.00;99.90
2873;DHT22;1444;49.166;7.312;2023-07-29T02:32:11;21.10;99.90
2873;DHT22;1444;49.166;7.312;2023-07-29T02:34:38;21.00;99.90
2873;DHT22;1444;49.166;7.312;2023-07-29T02:37:05;21.00;99.90
2873;DHT22;1444;49.166;7.312;2023-07-29T02:39:32;21.00;99.90
2873;DHT22;1444;49.166;7.312;2023-07-29T02:41:59;21.00;99.90
2873;DHT22;1444;49.166;7.312;2023-07-29T02:44:26;20.90;99.90
2873;DHT22;1444;49.166;7.312;2023-07-29T02:46:53;21.00;99.90
2873;DHT22;1444;49.166;7.312;2023-07-29T02:49:22;21.00;99.90
2873;DHT22;1444;49.166;7.312;2023-07-29T02:51:49;21.00;99.90
2873;DHT22;1444;49.166;7.312;2023-07-29T02:54:16;21.00;99.90
2873;DHT22;1444;49.166;7.312;2023-07-29T02:56:43;21.00;99.90
2873;DHT22;1444;49.166;7.312;2023-07-29T02:59:10;21.00;99.90
2873;DHT22;1444;49.166;7.312;2023-07-29T03:01:37;21.00;99.90
2873;DHT22;1444;49.166;7.312;2023-07-29T03:04:04;21.00;99.90
2873;DHT22;1444;49.166;7.312;2023-07-29T03:06:32;20.90;99.90
2873;DHT22;1444;49.166;7.312;2023-07-29T03:08:59;21.00;99.90
2873;DHT22;1444;49.166;7.312;2023-07-29T03:11:25;20.90;99.90
2873;DHT22;1444;49.166;7.312;2023-07-29T03:13:53;20.90;99.90
2873;DHT22;1444;49.166;7.312;2023-07-29T03:16:20;20.90;99.90
2873;DHT22;1444;49.166;7.312;2023-07-29T03:18:48;20.90;99.90
2873;DHT22;1444;49.166;7.312;2023-07-29T03:21:15;21.00;99.90
2873;DHT22;1444;49.166;7.312;2023-07-29T03:23:43;20.90;99.90
2873;DHT22;1444;49.166;7.312;2023-07-29T03:26:10;20.90;99.90
2873;DHT22;1444;49.166;7.312;2023-07-29T03:28:41;20.90;99.90
2873;DHT22;1444;49.166;7.312;2023-07-29T03:31:08;18.80;99.90
2873;DHT22;1444;49.166;7.312;2023-07-29T03:33:35;21.00;99.90
2873;DHT22;1444;49.166;7.312;2023-07-29T03:36:02;21.10;99.90
2873;DHT22;1444;49.166;7.312;2023-07-29T03:38:29;21.10;99.90
2873;DHT22;1444;49.166;7.312;2023-07-29T03:40:59;21.10;99.90
2873;DHT22;1444;49.166;7.312;2023-07-29T03:43:28;21.00;99.90
2873;DHT22;1444;49.166;7.312;2023-07-29T03:45:54;21.00;99.90
2873;DHT22;1444;49.166;7.312;2023-07-29T03:48:21;20.90;99.90
2873;DHT22;1444;49.166;7.312;2023-07-29T03:50:49;20.90;99.90
2873;DHT22;1444;49.166;7.312;2023-07-29T03:53:16;20.80;99.90
2873;DHT22;1444;49.166;7.312;2023-07-29T03:55:43;20.90;99.90
2873;DHT22;1444;49.166;7.312;2023-07-29T03:58:12;20.90;99.90
2873;DHT22;1444;49.166;7.312;2023-07-29T04:00:38;20.90;99.90
2873;DHT22;1444;49.166;7.312;2023-07-29T04:03:05;20.90;99.90
2873;DHT22;1444;49.166;7.312;2023-07-29T04:05:32;20.90;99.90
2873;DHT22;1444;49.166;7.312;2023-07-29T04:07:59;20.90;99.90
2873;DHT22;1444;49.166;7.312;2023-07-29T04:10:26;20.80;99.90
2873;DHT22;1444;49.166;7.312;2023-07-29T04:12:53;20.90;99.90
2873;DHT22;1444;49.166;7.312;2023-07-29T04:15:21;20.90;99.90
2873;DHT22;1444;49.166;7.312;2023-07-29T04:17:49;20.90;99.90
2873;DHT22;1444;49.166;7.312;2023-07-29T04:20:16;20.90;99.90
2873;DHT22;1444;49.166;7.312;2023-07-29T04:22:43;20.80;99.90
2873;DHT22;1444;49.166;7.312;2023-07-29T04:25:10;20.80;99.90
2873;DHT22;1444;49.166;7.312;2023-07-29T04:27:37;20.80;99.90
2873;DHT22;1444;49.166;7.312;2023-07-29T04:30:05;20.70;99.90
2873;DHT22;1444;49.166;7.312;2023-07-29T04:32:33;20.80;99.90
2873;DHT22;1444;49.166;7.312;2023-07-29T04:35:00;20.80;99.90
2873;DHT22;1444;49.166;7.312;2023-07-29T04:37:27;20.80;99.90
2873;DHT22;1444;49.166;7.312;2023-07-29T04:39:54;20.80;99.90
2873;DHT22;1444;49.166;7.312;2023-07-29T04:42:21;20.90;99.90
2873;DHT22;1444;49.166;7.312;2023-07-29T04:44:48;20.90;99.90
2873;DHT22;1444;49.166;7.312;2023-07-29T04:47:15;20.90;99.90
2873;DHT22;1444;49.166;7.312;2023-07-29T04:49:43;20.90;99.90
2873;DHT22;1444;49.166;7.312;2023-07-29T04:52:10;20.90;99.90
2873;DHT22;1444;49.166;7.312;2023-07-29T04:54:36;20.80;99.90
2873;DHT22;1444;49.166;7.312;2023-07-29T04:57:04;22.10;99.90
2873;DHT22;1444;49.166;7.312;2023-07-29T04:59:31;20.80;99.90
2873;DHT22;1444;49.166;7.312;2023-07-29T05:01:58;20.80;99.90
2873;DHT22;1444;49.166;7.312;2023-07-29T05:04:24;20.80;99.90
2873;DHT22;1444;49.166;7.312;2023-07-29T05:06:53;20.70;99.90
2873;DHT22;1444;49.166;7.312;2023-07-29T05:09:20;20.80;99.90
2873;DHT22;1444;49.166;7.312;2023-07-29T05:11:47;20.80;99.90
2873;DHT22;1444;49.166;7.312;2023-07-29T05:14:15;20.80;99.90
2873;DHT22;1444;49.166;7.312;2023-07-29T05:16:42;20.80;99.90
2873;DHT22;1444;49.166;7.312;2023-07-29T05:19:09;20.80;99.90
2873;DHT22;1444;49.166;7.312;2023-07-29T05:21:37;20.80;99.90
2873;DHT22;1444;49.166;7.312;2023-07-29T05:24:06;20.80;99.90
2873;DHT22;1444;49.166;7.312;2023-07-29T05:26:33;20.90;99.90
2873;DHT22;1444;49.166;7.312;2023-07-29T05:29:00;20.90;99.90
2873;DHT22;1444;49.166;7.312;2023-07-29T05:31:27;20.80;99.90
2873;DHT22;1444;49.166;7.312;2023-07-29T05:33:54;20.80;99.90
2873;DHT22;1444;49.166;7.312;2023-07-29T05:36:21;20.80;99.90
2873;DHT22;1444;49.166;7.312;2023-07-29T05:38:48;20.90;99.90
2873;DHT22;1444;49.166;7.312;2023-07-29T05:41:16;20.90;99.90
2873;DHT22;1444;49.166;7.312;2023-07-29T05:43:43;20.90;99.90
2873;DHT22;1444;49.166;7.312;2023-07-29T05:46:10;20.80;99.90
2873;DHT22;1444;49.166;7.312;2023-07-29T05:48:37;20.90;99.90
2873;DHT22;1444;49.166;7.312;2023-07-29T05:51:04;20.90;99.90
2873;DHT22;1444;49.166;7.312;2023-07-29T05:53:31;20.80;99.90
2873;DHT22;1444;49.166;7.312;2023-07-29T05:55:58;20.80;99.90
2873;DHT22;1444;49.166;7.312;2023-07-29T05:58:27;20.80;99.90
2873;DHT22;1444;49.166;7.312;2023-07-29T06:00:53;20.80;99.90
2873;DHT22;1444;49.166;7.312;2023-07-29T06:03:20;20.90;99.90
2873;DHT22;1444;49.166;7.312;2023-07-29T06:05:48;20.90;99.90
2873;DHT22;1444;49.166;7.312;2023-07-29T06:08:15;21.00;99.90
2873;DHT22;1444;49.166;7.312;2023-07-29T06:10:42;21.00;99.90
2873;DHT22;1444;49.166;7.312;2023-07-29T06:13:09;20.90;99.90
2873;DHT22;1444;49.166;7.312;2023-07-29T06:15:37;20.90;99.90
2873;DHT22;1444;49.166;7.312;2023-07-29T06:18:04;20.90;99.90
2873;DHT22;1444;49.166;7.312;2023-07-29T06:20:31;20.90;99.90
2873;DHT22;1444;49.166;7.312;2023-07-29T06:22:58;21.00;99.90
2873;DHT22;1444;49.166;7.312;2023-07-29T06:25:25;21.00;99.90
2873;DHT22;1444;49.166;7.312;2023-07-29T06:27:52;20.90;99.90
2873;DHT22;1444;49.166;7.312;2023-07-29T06:30:18;21.00;99.90
2873;DHT22;1444;49.166;7.312;2023-07-29T06:32:47;21.10;99.90
2873;DHT22;1444;49.166;7.312;2023-07-29T06:35:14;21.20;99.90
2873;DHT22;1444;49.166;7.312;2023-07-29T06:37:40;21.30;99.90
2873;DHT22;1444;49.166;7.312;2023-07-29T06:40:08;21.30;99.90
2873;DHT22;1444;49.166;7.312;2023-07-29T06:42:35;21.40;99.90
2873;DHT22;1444;49.166;7.312;2023-07-29T06:45:03;21.40;99.90
2873;DHT22;1444;49.166;7.312;2023-07-29T06:47:30;21.40;99.90
2873;DHT22;1444;49.166;7.312;2023-07-29T06:49:59;21.40;99.90
2873;DHT22;1444;49.166;7.312;2023-07-29T06:52:26;21.40;99.90
2873;DHT22;1444;49.166;7.312;2023-07-29T06:54:52;21.40;99.90
2873;DHT22;1444;49.166;7.312;2023-07-29T06:57:19;21.40;99.90
2873;DHT22;1444;49.166;7.312;2023-07-29T06:59:46;21.30;99.90
2873;DHT22;1444;49.166;7.312;2023-07-29T07:02:13;21.30;99.90
2873;DHT22;1444;49.166;7.312;2023-07-29T07:04:40;21.20;99.90
2873;DHT22;1444;49.166;7.312;2023-07-29T07:07:09;21.10;99.90
2873;DHT22;1444;49.166;7.312;2023-07-29T07:09:36;21.10;99.90
2873;DHT22;1444;49.166;7.312;2023-07-29T07:12:03;21.10;99.90
2873;DHT22;1444;49.166;7.312;2023-07-29T07:14:30;21.10;99.90
2873;DHT22;1444;49.166;7.312;2023-07-29T07:16:57;21.20;99.90
2873;DHT22;1444;49.166;7.312;2023-07-29T07:19:24;20.90;99.90
2873;DHT22;1444;49.166;7.312;2023-07-29T07:21:51;20.80;99.90
2873;DHT22;1444;49.166;7.312;2023-07-29T07:24:19;20.80;99.90
2873;DHT22;1444;49.166;7.312;2023-07-29T07:26:46;20.80;99.90
2873;DHT22;1444;49.166;7.312;2023-07-29T07:29:12;20.80;99.90
2873;DHT22;1444;49.166;7.312;2023-07-29T07:31:39;21.10;99.90
2873;DHT22;1444;49.166;7.312;2023-07-29T07:34:06;21.30;99.90
2873;DHT22;1444;49.166;7.312;2023-07-29T07:36:33;21.60;99.90
2873;DHT22;1444;49.166;7.312;2023-07-29T07:39:00;21.80;99.90
2873;DHT22;1444;49.166;7.312;2023-07-29T07:41:29;21.10;99.90
2873;DHT22;1444;49.166;7.312;2023-07-29T07:43:56;22.00;99.90
2873;DHT22;1444;49.166;7.312;2023-07-29T07:46:23;22.10;99.90
2873;DHT22;1444;49.166;7.312;2023-07-29T07:48:50;22.20;99.90
2873;DHT22;1444;49.166;7.312;2023-07-29T07:51:17;22.30;99.90
2873;DHT22;1444;49.166;7.312;2023-07-29T07:53:44;22.20;99.90
2873;DHT22;1444;49.166;7.312;2023-07-29T07:56:11;22.10;99.90
2873;DHT22;1444;49.166;7.312;2023-07-29T07:58:39;22.20;99.90
2873;DHT22;1444;49.166;7.312;2023-07-29T08:01:07;22.30;99.90
2873;DHT22;1444;49.166;7.312;2023-07-29T08:03:35;22.40;99.90
2873;DHT22;1444;49.166;7.312;2023-07-29T08:06:02;22.40;99.90
2873;DHT22;1444;49.166;7.312;2023-07-29T08:08:29;22.50;99.90
2873;DHT22;1444;49.166;7.312;2023-07-29T08:10:57;22.60;99.90
2873;DHT22;1444;49.166;7.312;2023-07-29T08:13:24;22.60;99.90
2873;DHT22;1444;49.166;7.312;2023-07-29T08:15:52;22.70;99.90
2873;DHT22;1444;49.166;7.312;2023-07-29T08:18:19;21.10;99.90
2873;DHT22;1444;49.166;7.312;2023-07-29T08:20:54;22.90;99.90
2873;DHT22;1444;49.166;7.312;2023-07-29T08:23:24;23.10;99.90
2873;DHT22;1444;49.166;7.312;2023-07-29T08:25:52;23.20;99.90
2873;DHT22;1444;49.166;7.312;2023-07-29T08:28:20;23.10;99.90
2873;DHT22;1444;49.166;7.312;2023-07-29T08:30:47;23.10;99.90
2873;DHT22;1444;49.166;7.312;2023-07-29T08:33:15;23.00;99.90
2873;DHT22;1444;49.166;7.312;2023-07-29T08:35:42;23.10;99.90
2873;DHT22;1444;49.166;7.312;2023-07-29T08:38:09;23.10;99.90
2873;DHT22;1444;49.166;7.312;2023-07-29T08:40:38;23.20;99.90
2873;DHT22;1444;49.166;7.312;2023-07-29T08:43:08;23.20;99.90
2873;DHT22;1444;49.166;7.312;2023-07-29T08:45:36;23.50;99.90
2873;DHT22;1444;49.166;7.312;2023-07-29T08:48:07;23.60;99.90
2873;DHT22;1444;49.166;7.312;2023-07-29T08:50:36;23.80;99.90
2873;DHT22;1444;49.166;7.312;2023-07-29T08:53:04;24.00;99.90
2873;DHT22;1444;49.166;7.312;2023-07-29T08:55:32;24.20;99.90
2873;DHT22;1444;49.166;7.312;2023-07-29T08:57:59;24.30;99.90
2873;DHT22;1444;49.166;7.312;2023-07-29T09:00:27;24.30;99.90
2873;DHT22;1444;49.166;7.312;2023-07-29T09:02:54;24.20;99.90
2873;DHT22;1444;49.166;7.312;2023-07-29T09:05:21;24.20;99.90
2873;DHT22;1444;49.166;7.312;2023-07-29T09:07:50;23.80;99.90
2873;DHT22;1444;49.166;7.312;2023-07-29T09:10:21;23.80;99.90
2873;DHT22;1444;49.166;7.312;2023-07-29T09:12:49;23.60;99.90
2873;DHT22;1444;49.166;7.312;2023-07-29T09:15:27;22.80;99.90
2873;DHT22;1444;49.166;7.312;2023-07-29T09:17:55;23.70;99.90
2873;DHT22;1444;49.166;7.312;2023-07-29T09:20:26;24.00;99.90
2873;DHT22;1444;49.166;7.312;2023-07-29T09:22:58;24.10;99.90
2873;DHT22;1444;49.166;7.312;2023-07-29T09:25:25;23.70;99.90
2873;DHT22;1444;49.166;7.312;2023-07-29T09:27:53;23.80;99.90
2873;DHT22;1444;49.166;7.312;2023-07-29T09:30:25;23.70;99.90
2873;DHT22;1444;49.166;7.312;2023-07-29T09:32:55;23.90;99.90
2873;DHT22;1444;49.166;7.312;2023-07-29T09:35:22;24.20;99.90
2873;DHT22;1444;49.166;7.312;2023-07-29T09:37:50;24.60;99.90
2873;DHT22;1444;49.166;7.312;2023-07-29T09:40:18;24.80;99.90
2873;DHT22;1444;49.166;7.312;2023-07-29T09:42:49;24.90;99.90
2873;DHT22;1444;49.166;7.312;2023-07-29T09:45:20;25.10;99.90
2873;DHT22;1444;49.166;7.312;2023-07-29T09:47:48;25.20;99.90
2873;DHT22;1444;49.166;7.312;2023-07-29T09:50:15;25.00;99.90
2873;DHT22;1444;49.166;7.312;2023-07-29T09:52:43;25.20;99.90
2873;DHT22;1444;49.166;7.312;2023-07-29T09:55:11;24.80;99.90
2873;DHT22;1444;49.166;7.312;2023-07-29T09:57:39;24.70;99.90
2873;DHT22;1444;49.166;7.312;2023-07-29T10:00:07;24.70;99.90
2873;DHT22;1444;49.166;7.312;2023-07-29T10:02:38;24.70;99.90
2873;DHT22;1444;49.166;7.312;2023-07-29T10:05:06;24.90;99.90
2873;DHT22;1444;49.166;7.312;2023-07-29T10:07:35;25.10;99.90
2873;DHT22;1444;49.166;7.312;2023-07-29T10:10:04;25.20;99.90
2873;DHT22;1444;49.166;7.312;2023-07-29T10:12:32;25.30;99.90
2873;DHT22;1444;49.166;7.312;2023-07-29T10:15:02;25.10;99.70
2873;DHT22;1444;49.166;7.312;2023-07-29T10:17:30;24.80;98.80
2873;DHT22;1444;49.166;7.312;2023-07-29T10:19:57;24.60;98.40
2873;DHT22;1444;49.166;7.312;2023-07-29T10:22:28;24.50;99.50
2873;DHT22;1444;49.166;7.312;2023-07-29T10:25:04;24.40;99.80
2873;DHT22;1444;49.166;7.312;2023-07-29T10:27:35;24.60;99.90
2873;DHT22;1444;49.166;7.312;2023-07-29T10:30:06;24.70;99.90
2873;DHT22;1444;49.166;7.312;2023-07-29T10:32:34;24.80;99.20
2873;DHT22;1444;49.166;7.312;2023-07-29T10:35:01;24.70;99.00
2873;DHT22;1444;49.166;7.312;2023-07-29T10:37:28;24.80;99.60
2873;DHT22;1444;49.166;7.312;2023-07-29T10:39:55;24.80;98.70
2873;DHT22;1444;49.166;7.312;2023-07-29T10:42:22;24.70;98.30
2873;DHT22;1444;49.166;7.312;2023-07-29T10:44:50;24.80;98.70
2873;DHT22;1444;49.166;7.312;2023-07-29T10:47:21;25.00;99.90
2873;DHT22;1444;49.166;7.312;2023-07-29T10:49:50;25.40;99.90
2873;DHT22;1444;49.166;7.312;2023-07-29T10:52:29;25.40;99.90
2873;DHT22;1444;49.166;7.312;2023-07-29T10:54:56;25.30;99.00
2873;DHT22;1444;49.166;7.312;2023-07-29T10:57:31;25.20;99.10
2873;DHT22;1444;49.166;7.312;2023-07-29T10:59:59;25.10;98.60
2873;DHT22;1444;49.166;7.312;2023-07-29T11:02:32;24.90;98.80
2873;DHT22;1444;49.166;7.312;2023-07-29T11:05:00;24.60;98.60
2873;DHT22;1444;49.166;7.312;2023-07-29T11:07:31;24.60;98.50
2873;DHT22;1444;49.166;7.312;2023-07-29T11:10:00;24.60;99.30
2873;DHT22;1444;49.166;7.312;2023-07-29T11:12:35;24.60;98.90
2873;DHT22;1444;49.166;7.312;2023-07-29T11:15:04;24.70;99.40
2873;DHT22;1444;49.166;7.312;2023-07-29T11:17:33;24.80;99.90
2873;DHT22;1444;49.166;7.312;2023-07-29T11:20:01;25.10;99.90
2873;DHT22;1444;49.166;7.312;2023-07-29T11:22:29;25.30;99.90
2873;DHT22;1444;49.166;7.312;2023-07-29T11:24:56;25.70;99.90
2873;DHT22;1444;49.166;7.312;2023-07-29T11:27:23;26.00;99.60
2873;DHT22;1444;49.166;7.312;2023-07-29T11:29:50;25.90;98.30
2873;DHT22;1444;49.166;7.312;2023-07-29T11:32:17;25.90;98.40
2873;DHT22;1444;49.166;7.312;2023-07-29T11:34:45;25.90;98.60
2873;DHT22;1444;49.166;7.312;2023-07-29T11:37:12;25.70;98.10
2873;DHT22;1444;49.166;7.312;2023-07-29T11:39:40;25.30;97.50
2873;DHT22;1444;49.166;7.312;2023-07-29T11:42:07;25.30;97.80
2873;DHT22;1444;49.166;7.312;2023-07-29T11:44:37;25.20;98.00
2873;DHT22;1444;49.166;7.312;2023-07-29T11:47:06;24.70;98.30
2873;DHT22;1444;49.166;7.312;2023-07-29T11:49:33;24.90;98.70
2873;DHT22;1444;49.166;7.312;2023-07-29T11:52:02;25.40;98.70
2873;DHT22;1444;49.166;7.312;2023-07-29T11:54:30;24.90;98.80
2873;DHT22;1444;49.166;7.312;2023-07-29T11:56:57;24.90;99.30
2873;DHT22;1444;49.166;7.312;2023-07-29T11:59:24;24.90;99.20
2873;DHT22;1444;49.166;7.312;2023-07-29T12:01:51;25.10;99.10
2873;DHT22;1444;49.166;7.312;2023-07-29T12:04:19;25.30;99.80
2873;DHT22;1444;49.166;7.312;2023-07-29T12:06:46;25.50;98.40
2873;DHT22;1444;49.166;7.312;2023-07-29T12:09:15;25.70;98.80
2873;DHT22;1444;49.166;7.312;2023-07-29T12:11:42;25.70;98.30
2873;DHT22;1444;49.166;7.312;2023-07-29T12:14:09;25.80;99.50
2873;DHT22;1444;49.166;7.312;2023-07-29T12:16:40;26.00;98.20
2873;DHT22;1444;49.166;7.312;2023-07-29T12:19:07;25.70;97.20
2873;DHT22;1444;49.166;7.312;2023-07-29T12:21:35;25.50;98.00
2873;DHT22;1444;49.166;7.312;2023-07-29T12:24:02;26.20;98.10
2873;DHT22;1444;49.166;7.312;2023-07-29T12:26:31;25.40;98.10
2873;DHT22;1444;49.166;7.312;2023-07-29T12:28:57;25.40;97.00
2873;DHT22;1444;49.166;7.312;2023-07-29T12:31:31;25.80;99.40
2873;DHT22;1444;49.166;7.312;2023-07-29T12:33:58;25.90;96.80
2873;DHT22;1444;49.166;7.312;2023-07-29T12:36:28;25.80;96.70
2873;DHT22;1444;49.166;7.312;2023-07-29T12:39:06;25.70;97.00
2873;DHT22;1444;49.166;7.312;2023-07-29T12:41:43;25.70;97.20
2873;DHT22;1444;49.166;7.312;2023-07-29T12:44:10;25.50;97.60
2873;DHT22;1444;49.166;7.312;2023-07-29T12:46:38;25.50;96.90
2873;DHT22;1444;49.166;7.312;2023-07-29T12:49:04;25.60;97.00
2873;DHT22;1444;49.166;7.312;2023-07-29T12:51:32;25.70;97.20
2873;DHT22;1444;49.166;7.312;2023-07-29T12:53:59;25.80;96.20
2873;DHT22;1444;49.166;7.312;2023-07-29T12:56:25;25.70;95.50
2873;DHT22;1444;49.166;7.312;2023-07-29T12:58:54;25.70;96.40
2873;DHT22;1444;49.166;7.312;2023-07-29T13:01:21;25.90;96.60
2873;DHT22;1444;49.166;7.312;2023-07-29T13:03:48;26.20;95.90
2873;DHT22;1444;49.166;7.312;2023-07-29T13:06:16;26.40;96.00
2873;DHT22;1444;49.166;7.312;2023-07-29T13:08:44;26.40;95.20
2873;DHT22;1444;49.166;7.312;2023-07-29T13:11:11;26.50;95.90
2873;DHT22;1444;49.166;7.312;2023-07-29T13:13:38;26.80;96.40
2873;DHT22;1444;49.166;7.312;2023-07-29T13:16:06;26.90;96.40
2873;DHT22;1444;49.166;7.312;2023-07-29T13:18:33;26.90;95.90
2873;DHT22;1444;49.166;7.312;2023-07-29T13:21:00;26.90;95.70
2873;DHT22;1444;49.166;7.312;2023-07-29T13:23:27;26.70;96.00
2873;DHT22;1444;49.166;7.312;2023-07-29T13:25:55;26.70;94.30
2873;DHT22;1444;49.166;7.312;2023-07-29T13:28:22;26.50;94.10
2873;DHT22;1444;49.166;7.312;2023-07-29T13:30:49;26.50;94.10
2873;DHT22;1444;49.166;7.312;2023-07-29T13:33:17;26.60;93.50
2873;DHT22;1444;49.166;7.312;2023-07-29T13:35:44;26.30;93.60
2873;DHT22;1444;49.166;7.312;2023-07-29T13:38:11;26.40;94.80
2873;DHT22;1444;49.166;7.312;2023-07-29T13:40:38;26.50;94.60
2873;DHT22;1444;49.166;7.312;2023-07-29T13:43:05;26.70;95.80
2873;DHT22;1444;49.166;7.312;2023-07-29T13:45:31;26.90;94.50
2873;DHT22;1444;49.166;7.312;2023-07-29T13:47:58;26.70;94.10
2873;DHT22;1444;49.166;7.312;2023-07-29T13:50:26;26.70;95.60
2873;DHT22;1444;49.166;7.312;2023-07-29T13:52:53;26.60;94.60
2873;DHT22;1444;49.166;7.312;2023-07-29T13:55:20;26.70;95.30
2873;DHT22;1444;49.166;7.312;2023-07-29T13:57:47;26.90;95.90
2873;DHT22;1444;49.166;7.312;2023-07-29T14:00:14;26.60;94.70
2873;DHT22;1444;49.166;7.312;2023-07-29T14:02:41;26.40;94.80
2873;DHT22;1444;49.166;7.312;2023-07-29T14:05:09;26.40;94.30
2873;DHT22;1444;49.166;7.312;2023-07-29T14:07:38;26.40;95.10
2873;DHT22;1444;49.166;7.312;2023-07-29T14:10:06;26.50;94.30
2873;DHT22;1444;49.166;7.312;2023-07-29T14:12:33;26.40;94.50
2873;DHT22;1444;49.166;7.312;2023-07-29T14:15:00;26.30;94.40
2873;DHT22;1444;49.166;7.312;2023-07-29T14:17:27;26.30;94.60
2873;DHT22;1444;49.166;7.312;2023-07-29T14:19:54;26.40;95.30
2873;DHT22;1444;49.166;7.312;2023-07-29T14:22:21;26.40;95.60
2873;DHT22;1444;49.166;7.312;2023-07-29T14:24:49;26.40;95.30
2873;DHT22;1444;49.166;7.312;2023-07-29T14:27:16;26.40;95.50
2873;DHT22;1444;49.166;7.312;2023-07-29T14:29:43;26.40;96.00
2873;DHT22;1444;49.166;7.312;2023-07-29T14:32:10;26.60;96.30
2873;DHT22;1444;49.166;7.312;2023-07-29T14:34:37;26.70;96.10
2873;DHT22;1444;49.166;7.312;2023-07-29T14:37:04;26.80;95.20
2873;DHT22;1444;49.166;7.312;2023-07-29T14:39:31;27.00;95.00
2873;DHT22;1444;49.166;7.312;2023-07-29T14:42:00;26.90;95.70
2873;DHT22;1444;49.166;7.312;2023-07-29T14:44:27;27.10;95.30
2873;DHT22;1444;49.166;7.312;2023-07-29T14:46:53;27.10;95.20
2873;DHT22;1444;49.166;7.312;2023-07-29T14:49:20;27.00;94.20
2873;DHT22;1444;49.166;7.312;2023-07-29T14:51:47;26.90;94.90
2873;DHT22;1444;49.166;7.312;2023-07-29T14:54:14;26.90;95.60
2873;DHT22;1444;49.166;7.312;2023-07-29T14:56:41;26.90;95.90
2873;DHT22;1444;49.166;7.312;2023-07-29T14:59:10;26.70;94.80
2873;DHT22;1444;49.166;7.312;2023-07-29T15:01:37;26.70;95.70
2873;DHT22;1444;49.166;7.312;2023-07-29T15:04:04;26.30;95.50
2873;DHT22;1444;49.166;7.312;2023-07-29T15:06:31;26.30;95.50
2873;DHT22;1444;49.166;7.312;2023-07-29T15:08:57;26.00;95.60
2873;DHT22;1444;49.166;7.312;2023-07-29T15:11:24;25.90;95.70
2873;DHT22;1444;49.166;7.312;2023-07-29T15:13:51;25.90;96.00
2873;DHT22;1444;49.166;7.312;2023-07-29T15:16:23;25.90;96.90
2873;DHT22;1444;49.166;7.312;2023-07-29T15:18:50;26.00;96.40
2873;DHT22;1444;49.166;7.312;2023-07-29T15:21:17;25.90;96.80
2873;DHT22;1444;49.166;7.312;2023-07-29T15:23:44;26.10;95.60
2873;DHT22;1444;49.166;7.312;2023-07-29T15:26:11;26.20;95.80
2873;DHT22;1444;49.166;7.312;2023-07-29T15:28:38;26.20;96.10
2873;DHT22;1444;49.166;7.312;2023-07-29T15:31:05;26.30;97.00
2873;DHT22;1444;49.166;7.312;2023-07-29T15:33:33;26.30;96.20
2873;DHT22;1444;49.166;7.312;2023-07-29T15:36:00;26.10;98.00
2873;DHT22;1444;49.166;7.312;2023-07-29T15:38:27;25.80;99.10
2873;DHT22;1444;49.166;7.312;2023-07-29T15:40:54;25.40;99.90
2873;DHT22;1444;49.166;7.312;2023-07-29T15:43:22;25.40;99.90
2873;DHT22;1444;49.166;7.312;2023-07-29T15:45:49;25.30;99.90
2873;DHT22;1444;49.166;7.312;2023-07-29T15:48:16;25.30;99.90
2873;DHT22;1444;49.166;7.312;2023-07-29T15:50:44;25.20;99.90
2873;DHT22;1444;49.166;7.312;2023-07-29T15:53:11;25.30;99.90
2873;DHT22;1444;49.166;7.312;2023-07-29T15:55:38;25.30;99.90
2873;DHT22;1444;49.166;7.312;2023-07-29T15:58:04;25.30;99.90
2873;DHT22;1444;49.166;7.312;2023-07-29T16:00:31;25.40;99.90
2873;DHT22;1444;49.166;7.312;2023-07-29T16:02:58;25.30;99.90
2873;DHT22;1444;49.166;7.312;2023-07-29T16:05:25;25.10;99.90